sensor_id;sensor_type;location;lat;lon;timestamp;P1;durP1;ratioP1;P2;durP2;ratioP2
56712;SDS011;42589;45.536;9.032;2022-11-20T00:00:55;44.38;;;28.15;;
56712;SDS011;42589;45.536;9.032;2022-11-20T00:03:55;40.17;;;26.48;;
56712;SDS011;42589;45.536;9.032;2022-11-20T00:06:57;41.53;;;26.02;;
56712;SDS011;42589;45.536;9.032;2022-11-20T00:09:58;35.33;;;25.02;;
56712;SDS011;42589;45.536;9.032;2022-11-20T00:12:59;33.67;;;24.33;;
56712;SDS011;42589;45.536;9.032;2022-11-20T00:16:01;38.65;;;26.08;;
56712;SDS011;42589;45.536;9.032;2022-11-20T00:19:01;35.45;;;23.13;;
56712;SDS011;42589;45.536;9.032;2022-11-20T00:22:02;37.38;;;25.08;;
56712;SDS011;42589;45.536;9.032;2022-11-20T00:25:03;35.65;;;22.75;;
56712;SDS011;42589;45.536;9.032;2022-11-20T00:28:04;30.58;;;20.67;;
56712;SDS011;42589;45.536;9.032;2022-11-20T00:31:08;36.80;;;21.98;;
56712;SDS011;42589;45.536;9.032;2022-11-20T00:37:09;28.52;;;19.35;;
56712;SDS011;42589;45.536;9.032;2022-11-20T00:40:10;28.75;;;20.05;;
56712;SDS011;42589;45.536;9.032;2022-11-20T00:43:11;30.00;;;20.83;;
56712;SDS011;42589;45.536;9.032;2022-11-20T00:46:14;28.45;;;19.70;;
56712;SDS011;42589;45.536;9.032;2022-11-20T00:49:15;25.35;;;18.23;;
56712;SDS011;42589;45.536;9.032;2022-11-20T00:52:15;29.67;;;19.35;;
56712;SDS011;42589;45.536;9.032;2022-11-20T00:55:16;25.05;;;17.38;;
56712;SDS011;42589;45.536;9.032;2022-11-20T00:58:17;28.00;;;18.67;;
56712;SDS011;42589;45.536;9.032;2022-11-20T01:01:19;27.38;;;17.85;;
56712;SDS011;42589;45.536;9.032;2022-11-20T01:04:20;25.65;;;17.95;;
56712;SDS011;42589;45.536;9.032;2022-11-20T01:07:22;27.67;;;18.75;;
56712;SDS011;42589;45.536;9.032;2022-11-20T01:10:24;24.42;;;17.38;;
56712;SDS011;42589;45.536;9.032;2022-11-20T01:13:24;26.17;;;18.20;;
56712;SDS011;42589;45.536;9.032;2022-11-20T01:16:38;26.20;;;17.90;;
56712;SDS011;42589;45.536;9.032;2022-11-20T01:19:39;25.98;;;17.42;;
56712;SDS011;42589;45.536;9.032;2022-11-20T01:22:40;23.17;;;16.17;;
56712;SDS011;42589;45.536;9.032;2022-11-20T01:25:40;20.30;;;15.25;;
56712;SDS011;42589;45.536;9.032;2022-11-20T01:28:41;23.48;;;16.95;;
56712;SDS011;42589;45.536;9.032;2022-11-20T01:31:42;23.10;;;17.30;;
56712;SDS011;42589;45.536;9.032;2022-11-20T01:34:44;22.38;;;15.38;;
56712;SDS011;42589;45.536;9.032;2022-11-20T01:37:44;20.05;;;15.68;;
56712;SDS011;42589;45.536;9.032;2022-11-20T01:40:53;24.58;;;15.73;;
56712;SDS011;42589;45.536;9.032;2022-11-20T01:43:53;24.50;;;17.10;;
56712;SDS011;42589;45.536;9.032;2022-11-20T01:46:57;20.30;;;15.27;;
56712;SDS011;42589;45.536;9.032;2022-11-20T01:53:07;21.77;;;15.90;;
56712;SDS011;42589;45.536;9.032;2022-11-20T01:56:08;21.65;;;16.27;;
56712;SDS011;42589;45.536;9.032;2022-11-20T01:59:11;22.73;;;16.33;;
56712;SDS011;42589;45.536;9.032;2022-11-20T02:02:14;21.33;;;15.15;;
56712;SDS011;42589;45.536;9.032;2022-11-20T02:05:20;21.85;;;16.35;;
56712;SDS011;42589;45.536;9.032;2022-11-20T02:08:23;21.48;;;15.68;;
56712;SDS011;42589;45.536;9.032;2022-11-20T02:11:23;20.77;;;15.90;;
56712;SDS011;42589;45.536;9.032;2022-11-20T02:14:23;21.08;;;15.43;;
56712;SDS011;42589;45.536;9.032;2022-11-20T02:17:25;22.13;;;16.55;;
56712;SDS011;42589;45.536;9.032;2022-11-20T02:20:28;20.00;;;14.75;;
56712;SDS011;42589;45.536;9.032;2022-11-20T02:23:33;20.90;;;15.48;;
56712;SDS011;42589;45.536;9.032;2022-11-20T02:26:48;21.23;;;14.75;;
56712;SDS011;42589;45.536;9.032;2022-11-20T02:29:51;21.48;;;15.15;;
56712;SDS011;42589;45.536;9.032;2022-11-20T02:32:52;19.48;;;14.10;;
56712;SDS011;42589;45.536;9.032;2022-11-20T02:35:53;20.23;;;14.23;;
56712;SDS011;42589;45.536;9.032;2022-11-20T02:38:53;27.08;;;14.95;;
56712;SDS011;42589;45.536;9.032;2022-11-20T02:41:54;18.67;;;14.27;;
56712;SDS011;42589;45.536;9.032;2022-11-20T02:44:56;20.63;;;14.60;;
56712;SDS011;42589;45.536;9.032;2022-11-20T02:47:57;21.00;;;14.60;;
56712;SDS011;42589;45.536;9.032;2022-11-20T02:50:57;20.20;;;13.90;;
56712;SDS011;42589;45.536;9.032;2022-11-20T02:53:59;17.20;;;13.50;;
56712;SDS011;42589;45.536;9.032;2022-11-20T02:57:00;17.88;;;13.80;;
56712;SDS011;42589;45.536;9.032;2022-11-20T03:00:00;18.75;;;14.13;;
56712;SDS011;42589;45.536;9.032;2022-11-20T03:03:02;16.92;;;13.43;;
56712;SDS011;42589;45.536;9.032;2022-11-20T03:06:02;18.73;;;13.88;;
56712;SDS011;42589;45.536;9.032;2022-11-20T03:09:03;17.83;;;13.20;;
56712;SDS011;42589;45.536;9.032;2022-11-20T03:12:04;16.88;;;12.93;;
56712;SDS011;42589;45.536;9.032;2022-11-20T03:15:05;16.65;;;12.73;;
56712;SDS011;42589;45.536;9.032;2022-11-20T03:18:07;18.02;;;13.48;;
56712;SDS011;42589;45.536;9.032;2022-11-20T03:21:10;16.17;;;12.60;;
56712;SDS011;42589;45.536;9.032;2022-11-20T03:24:11;17.23;;;13.00;;
56712;SDS011;42589;45.536;9.032;2022-11-20T03:27:12;17.08;;;12.63;;
56712;SDS011;42589;45.536;9.032;2022-11-20T03:30:13;14.93;;;11.77;;
56712;SDS011;42589;45.536;9.032;2022-11-20T03:33:13;20.00;;;12.32;;
56712;SDS011;42589;45.536;9.032;2022-11-20T03:36:15;16.30;;;11.95;;
56712;SDS011;42589;45.536;9.032;2022-11-20T03:39:16;15.40;;;11.95;;
56712;SDS011;42589;45.536;9.032;2022-11-20T03:42:17;17.60;;;11.98;;
56712;SDS011;42589;45.536;9.032;2022-11-20T03:45:36;13.90;;;11.80;;
56712;SDS011;42589;45.536;9.032;2022-11-20T03:48:36;15.63;;;11.70;;
56712;SDS011;42589;45.536;9.032;2022-11-20T03:51:37;15.43;;;11.77;;
56712;SDS011;42589;45.536;9.032;2022-11-20T03:54:38;17.17;;;12.25;;
56712;SDS011;42589;45.536;9.032;2022-11-20T03:57:38;17.20;;;11.73;;
56712;SDS011;42589;45.536;9.032;2022-11-20T04:00:39;18.90;;;11.98;;
56712;SDS011;42589;45.536;9.032;2022-11-20T04:03:40;16.77;;;12.32;;
56712;SDS011;42589;45.536;9.032;2022-11-20T04:06:41;16.65;;;11.38;;
56712;SDS011;42589;45.536;9.032;2022-11-20T04:09:42;16.85;;;11.48;;
56712;SDS011;42589;45.536;9.032;2022-11-20T04:12:42;20.58;;;11.48;;
56712;SDS011;42589;45.536;9.032;2022-11-20T04:15:43;17.25;;;10.48;;
56712;SDS011;42589;45.536;9.032;2022-11-20T04:18:45;16.35;;;10.50;;
56712;SDS011;42589;45.536;9.032;2022-11-20T04:21:46;15.23;;;10.60;;
56712;SDS011;42589;45.536;9.032;2022-11-20T04:24:46;14.38;;;10.60;;
56712;SDS011;42589;45.536;9.032;2022-11-20T04:27:47;17.35;;;9.70;;
56712;SDS011;42589;45.536;9.032;2022-11-20T04:30:48;14.90;;;9.82;;
56712;SDS011;42589;45.536;9.032;2022-11-20T04:33:49;15.10;;;9.93;;
56712;SDS011;42589;45.536;9.032;2022-11-20T04:36:51;13.43;;;9.60;;
56712;SDS011;42589;45.536;9.032;2022-11-20T04:39:53;16.38;;;10.57;;
56712;SDS011;42589;45.536;9.032;2022-11-20T04:42:57;17.88;;;10.30;;
56712;SDS011;42589;45.536;9.032;2022-11-20T04:45:58;18.38;;;10.13;;
56712;SDS011;42589;45.536;9.032;2022-11-20T04:48:59;16.85;;;10.07;;
56712;SDS011;42589;45.536;9.032;2022-11-20T04:52:00;15.45;;;9.43;;
56712;SDS011;42589;45.536;9.032;2022-11-20T04:55:01;16.05;;;9.68;;
56712;SDS011;42589;45.536;9.032;2022-11-20T04:58:01;15.23;;;9.15;;
56712;SDS011;42589;45.536;9.032;2022-11-20T05:04:06;13.68;;;9.07;;
56712;SDS011;42589;45.536;9.032;2022-11-20T05:07:06;15.55;;;9.38;;
56712;SDS011;42589;45.536;9.032;2022-11-20T05:10:07;14.98;;;9.10;;
56712;SDS011;42589;45.536;9.032;2022-11-20T05:13:08;17.45;;;8.85;;
56712;SDS011;42589;45.536;9.032;2022-11-20T05:16:16;15.48;;;8.40;;
56712;SDS011;42589;45.536;9.032;2022-11-20T05:19:16;10.38;;;7.30;;
56712;SDS011;42589;45.536;9.032;2022-11-20T05:22:18;10.38;;;7.53;;
56712;SDS011;42589;45.536;9.032;2022-11-20T05:25:19;13.25;;;7.35;;
56712;SDS011;42589;45.536;9.032;2022-11-20T05:28:20;11.50;;;7.03;;
56712;SDS011;42589;45.536;9.032;2022-11-20T05:31:21;9.43;;;6.57;;
56712;SDS011;42589;45.536;9.032;2022-11-20T05:34:22;8.52;;;6.15;;
56712;SDS011;42589;45.536;9.032;2022-11-20T05:37:23;9.57;;;6.15;;
56712;SDS011;42589;45.536;9.032;2022-11-20T05:40:24;11.23;;;6.32;;
56712;SDS011;42589;45.536;9.032;2022-11-20T05:43:25;9.10;;;5.72;;
56712;SDS011;42589;45.536;9.032;2022-11-20T05:46:26;9.30;;;5.60;;
56712;SDS011;42589;45.536;9.032;2022-11-20T05:49:27;6.88;;;4.90;;
56712;SDS011;42589;45.536;9.032;2022-11-20T05:52:28;8.10;;;5.57;;
56712;SDS011;42589;45.536;9.032;2022-11-20T05:55:29;9.38;;;5.68;;
56712;SDS011;42589;45.536;9.032;2022-11-20T05:58:30;7.47;;;5.10;;
56712;SDS011;42589;45.536;9.032;2022-11-20T06:01:31;6.82;;;4.80;;
56712;SDS011;42589;45.536;9.032;2022-11-20T06:04:32;9.63;;;5.03;;
56712;SDS011;42589;45.536;9.032;2022-11-20T06:07:32;6.63;;;4.70;;
56712;SDS011;42589;45.536;9.032;2022-11-20T06:10:34;6.57;;;4.40;;
56712;SDS011;42589;45.536;9.032;2022-11-20T06:13:35;8.05;;;4.03;;
56712;SDS011;42589;45.536;9.032;2022-11-20T06:16:36;7.57;;;4.40;;
56712;SDS011;42589;45.536;9.032;2022-11-20T06:19:37;5.00;;;3.90;;
56712;SDS011;42589;45.536;9.032;2022-11-20T06:22:37;6.88;;;4.07;;
56712;SDS011;42589;45.536;9.032;2022-11-20T06:25:39;5.03;;;3.85;;
56712;SDS011;42589;45.536;9.032;2022-11-20T06:28:40;7.47;;;4.28;;
56712;SDS011;42589;45.536;9.032;2022-11-20T06:31:41;4.70;;;3.78;;
56712;SDS011;42589;45.536;9.032;2022-11-20T06:34:42;5.68;;;3.80;;
56712;SDS011;42589;45.536;9.032;2022-11-20T06:37:43;5.32;;;3.83;;
56712;SDS011;42589;45.536;9.032;2022-11-20T06:40:44;6.20;;;3.92;;
56712;SDS011;42589;45.536;9.032;2022-11-20T06:43:45;5.07;;;3.45;;
56712;SDS011;42589;45.536;9.032;2022-11-20T06:46:45;7.68;;;4.13;;
56712;SDS011;42589;45.536;9.032;2022-11-20T06:49:46;5.35;;;3.42;;
56712;SDS011;42589;45.536;9.032;2022-11-20T06:52:46;4.55;;;3.25;;
56712;SDS011;42589;45.536;9.032;2022-11-20T06:55:47;5.63;;;3.30;;
56712;SDS011;42589;45.536;9.032;2022-11-20T06:58:48;4.70;;;3.70;;
56712;SDS011;42589;45.536;9.032;2022-11-20T07:01:49;5.10;;;3.30;;
56712;SDS011;42589;45.536;9.032;2022-11-20T07:04:50;6.75;;;3.72;;
56712;SDS011;42589;45.536;9.032;2022-11-20T07:07:51;6.18;;;3.60;;
56712;SDS011;42589;45.536;9.032;2022-11-20T07:10:52;3.70;;;3.20;;
56712;SDS011;42589;45.536;9.032;2022-11-20T07:13:53;5.40;;;3.42;;
56712;SDS011;42589;45.536;9.032;2022-11-20T07:16:54;6.53;;;3.42;;
56712;SDS011;42589;45.536;9.032;2022-11-20T07:19:55;4.45;;;3.33;;
56712;SDS011;42589;45.536;9.032;2022-11-20T07:22:56;4.50;;;3.67;;
56712;SDS011;42589;45.536;9.032;2022-11-20T07:25:57;7.85;;;4.68;;
56712;SDS011;42589;45.536;9.032;2022-11-20T07:28:58;6.63;;;4.85;;
56712;SDS011;42589;45.536;9.032;2022-11-20T07:31:59;14.55;;;13.05;;
56712;SDS011;42589;45.536;9.032;2022-11-20T07:34:59;13.18;;;11.98;;
56712;SDS011;42589;45.536;9.032;2022-11-20T07:38:00;12.98;;;11.77;;
56712;SDS011;42589;45.536;9.032;2022-11-20T07:41:01;10.00;;;8.55;;
56712;SDS011;42589;45.536;9.032;2022-11-20T07:44:02;8.38;;;7.15;;
56712;SDS011;42589;45.536;9.032;2022-11-20T07:47:03;8.35;;;7.30;;
56712;SDS011;42589;45.536;9.032;2022-11-20T07:50:04;9.13;;;7.93;;
56712;SDS011;42589;45.536;9.032;2022-11-20T07:53:05;8.95;;;7.88;;
56712;SDS011;42589;45.536;9.032;2022-11-20T07:56:06;10.02;;;7.65;;
56712;SDS011;42589;45.536;9.032;2022-11-20T07:59:07;10.50;;;7.65;;
56712;SDS011;42589;45.536;9.032;2022-11-20T08:02:11;8.63;;;7.05;;
56712;SDS011;42589;45.536;9.032;2022-11-20T08:05:12;8.93;;;6.70;;
56712;SDS011;42589;45.536;9.032;2022-11-20T08:08:13;6.70;;;5.85;;
56712;SDS011;42589;45.536;9.032;2022-11-20T08:11:14;9.55;;;5.80;;
56712;SDS011;42589;45.536;9.032;2022-11-20T08:14:33;11.20;;;6.55;;
56712;SDS011;42589;45.536;9.032;2022-11-20T08:17:34;7.80;;;5.95;;
56712;SDS011;42589;45.536;9.032;2022-11-20T08:20:36;7.75;;;5.63;;
56712;SDS011;42589;45.536;9.032;2022-11-20T08:23:37;11.00;;;6.53;;
56712;SDS011;42589;45.536;9.032;2022-11-20T08:26:39;8.57;;;6.00;;
56712;SDS011;42589;45.536;9.032;2022-11-20T08:29:40;9.68;;;6.35;;
56712;SDS011;42589;45.536;9.032;2022-11-20T08:32:41;14.70;;;6.63;;
56712;SDS011;42589;45.536;9.032;2022-11-20T08:35:42;9.85;;;6.22;;
56712;SDS011;42589;45.536;9.032;2022-11-20T08:38:46;8.00;;;5.63;;
56712;SDS011;42589;45.536;9.032;2022-11-20T08:41:47;9.52;;;6.38;;
56712;SDS011;42589;45.536;9.032;2022-11-20T08:44:48;7.07;;;5.72;;
56712;SDS011;42589;45.536;9.032;2022-11-20T08:47:49;7.70;;;5.63;;
56712;SDS011;42589;45.536;9.032;2022-11-20T08:50:50;8.65;;;5.40;;
56712;SDS011;42589;45.536;9.032;2022-11-20T08:53:50;9.90;;;5.70;;
56712;SDS011;42589;45.536;9.032;2022-11-20T08:59:56;16.08;;;6.25;;
56712;SDS011;42589;45.536;9.032;2022-11-20T09:02:57;11.05;;;5.93;;
56712;SDS011;42589;45.536;9.032;2022-11-20T09:06:06;11.55;;;5.78;;
56712;SDS011;42589;45.536;9.032;2022-11-20T09:09:13;10.85;;;5.95;;
56712;SDS011;42589;45.536;9.032;2022-11-20T09:12:13;8.05;;;5.55;;
56712;SDS011;42589;45.536;9.032;2022-11-20T09:15:14;7.82;;;5.63;;
56712;SDS011;42589;45.536;9.032;2022-11-20T09:18:16;7.68;;;6.00;;
56712;SDS011;42589;45.536;9.032;2022-11-20T09:21:18;9.93;;;5.78;;
56712;SDS011;42589;45.536;9.032;2022-11-20T09:24:19;9.25;;;5.63;;
56712;SDS011;42589;45.536;9.032;2022-11-20T09:27:20;8.50;;;6.30;;
56712;SDS011;42589;45.536;9.032;2022-11-20T09:30:22;8.50;;;5.80;;
56712;SDS011;42589;45.536;9.032;2022-11-20T09:33:22;6.85;;;5.55;;
56712;SDS011;42589;45.536;9.032;2022-11-20T09:36:23;6.15;;;4.80;;
56712;SDS011;42589;45.536;9.032;2022-11-20T09:39:23;11.43;;;8.43;;
56712;SDS011;42589;45.536;9.032;2022-11-20T09:49:07;15.02;;;7.10;;
56712;SDS011;42589;45.536;9.032;2022-11-20T09:52:19;18.20;;;10.93;;
56712;SDS011;42589;45.536;9.032;2022-11-20T09:55:21;9.27;;;6.35;;
56712;SDS011;42589;45.536;9.032;2022-11-20T09:58:32;8.00;;;5.97;;
56712;SDS011;42589;45.536;9.032;2022-11-20T10:01:36;8.82;;;6.22;;
56712;SDS011;42589;45.536;9.032;2022-11-20T10:04:38;8.27;;;5.85;;
56712;SDS011;42589;45.536;9.032;2022-11-20T10:07:48;6.93;;;5.32;;
56712;SDS011;42589;45.536;9.032;2022-11-20T10:11:14;12.15;;;6.40;;
56712;SDS011;42589;45.536;9.032;2022-11-20T10:21:05;6.88;;;5.05;;
56712;SDS011;42589;45.536;9.032;2022-11-20T10:30:33;6.78;;;5.63;;
56712;SDS011;42589;45.536;9.032;2022-11-20T10:33:39;7.65;;;6.18;;
56712;SDS011;42589;45.536;9.032;2022-11-20T10:36:43;8.00;;;5.90;;
56712;SDS011;42589;45.536;9.032;2022-11-20T10:39:49;7.28;;;5.50;;
56712;SDS011;42589;45.536;9.032;2022-11-20T10:45:58;9.43;;;7.65;;
56712;SDS011;42589;45.536;9.032;2022-11-20T10:49:01;11.05;;;8.63;;
56712;SDS011;42589;45.536;9.032;2022-11-20T10:52:09;13.52;;;9.57;;
56712;SDS011;42589;45.536;9.032;2022-11-20T11:01:29;12.40;;;8.82;;
56712;SDS011;42589;45.536;9.032;2022-11-20T11:04:35;14.05;;;10.00;;
56712;SDS011;42589;45.536;9.032;2022-11-20T11:07:38;13.23;;;9.88;;
56712;SDS011;42589;45.536;9.032;2022-11-20T11:10:46;12.98;;;9.90;;
56712;SDS011;42589;45.536;9.032;2022-11-20T11:13:48;11.43;;;9.48;;
56712;SDS011;42589;45.536;9.032;2022-11-20T11:16:50;10.52;;;8.50;;
56712;SDS011;42589;45.536;9.032;2022-11-20T11:20:02;10.07;;;8.23;;
56712;SDS011;42589;45.536;9.032;2022-11-20T11:23:05;11.15;;;8.00;;
56712;SDS011;42589;45.536;9.032;2022-11-20T11:26:06;8.55;;;6.38;;
56712;SDS011;42589;45.536;9.032;2022-11-20T11:29:15;8.77;;;6.60;;
56712;SDS011;42589;45.536;9.032;2022-11-20T11:32:18;9.50;;;7.05;;
56712;SDS011;42589;45.536;9.032;2022-11-20T11:35:20;11.38;;;7.32;;
56712;SDS011;42589;45.536;9.032;2022-11-20T11:38:30;11.65;;;7.93;;
56712;SDS011;42589;45.536;9.032;2022-11-20T11:41:32;9.70;;;7.05;;
56712;SDS011;42589;45.536;9.032;2022-11-20T11:44:35;8.93;;;7.50;;
56712;SDS011;42589;45.536;9.032;2022-11-20T11:47:56;9.82;;;7.82;;
56712;SDS011;42589;45.536;9.032;2022-11-20T11:50:57;10.32;;;7.07;;
56712;SDS011;42589;45.536;9.032;2022-11-20T11:53:58;7.55;;;6.40;;
56712;SDS011;42589;45.536;9.032;2022-11-20T11:57:00;10.82;;;6.60;;
56712;SDS011;42589;45.536;9.032;2022-11-20T12:03:19;8.38;;;6.25;;
56712;SDS011;42589;45.536;9.032;2022-11-20T12:06:21;7.22;;;5.47;;
56712;SDS011;42589;45.536;9.032;2022-11-20T12:09:24;9.23;;;6.85;;
56712;SDS011;42589;45.536;9.032;2022-11-20T12:12:30;8.02;;;6.40;;
56712;SDS011;42589;45.536;9.032;2022-11-20T12:15:33;7.97;;;6.40;;
56712;SDS011;42589;45.536;9.032;2022-11-20T12:18:34;11.73;;;7.85;;
56712;SDS011;42589;45.536;9.032;2022-11-20T12:24:59;7.40;;;6.47;;
56712;SDS011;42589;45.536;9.032;2022-11-20T12:37:42;7.15;;;5.85;;
56712;SDS011;42589;45.536;9.032;2022-11-20T12:44:03;8.02;;;6.03;;
56712;SDS011;42589;45.536;9.032;2022-11-20T12:53:32;8.40;;;5.97;;
56712;SDS011;42589;45.536;9.032;2022-11-20T13:03:14;6.35;;;5.32;;
56712;SDS011;42589;45.536;9.032;2022-11-20T13:06:17;6.38;;;5.30;;
56712;SDS011;42589;45.536;9.032;2022-11-20T13:09:19;5.65;;;5.05;;
56712;SDS011;42589;45.536;9.032;2022-11-20T13:12:30;7.07;;;4.97;;
56712;SDS011;42589;45.536;9.032;2022-11-20T13:18:39;12.27;;;7.13;;
56712;SDS011;42589;45.536;9.032;2022-11-20T13:21:42;6.13;;;4.20;;
56712;SDS011;42589;45.536;9.032;2022-11-20T13:24:50;8.18;;;5.90;;
56712;SDS011;42589;45.536;9.032;2022-11-20T13:27:51;5.82;;;4.65;;
56712;SDS011;42589;45.536;9.032;2022-11-20T13:30:52;4.78;;;4.28;;
56712;SDS011;42589;45.536;9.032;2022-11-20T13:33:54;6.45;;;4.35;;
56712;SDS011;42589;45.536;9.032;2022-11-20T13:36:56;4.15;;;3.75;;
56712;SDS011;42589;45.536;9.032;2022-11-20T13:40:31;4.93;;;3.60;;
56712;SDS011;42589;45.536;9.032;2022-11-20T13:43:35;5.32;;;3.75;;
56712;SDS011;42589;45.536;9.032;2022-11-20T13:46:41;5.78;;;4.05;;
56712;SDS011;42589;45.536;9.032;2022-11-20T13:49:44;5.13;;;3.80;;
56712;SDS011;42589;45.536;9.032;2022-11-20T13:55:55;4.88;;;3.80;;
56712;SDS011;42589;45.536;9.032;2022-11-20T13:59:05;5.43;;;3.67;;
56712;SDS011;42589;45.536;9.032;2022-11-20T14:02:12;5.93;;;3.90;;
56712;SDS011;42589;45.536;9.032;2022-11-20T14:05:18;6.10;;;4.00;;
56712;SDS011;42589;45.536;9.032;2022-11-20T14:08:35;7.72;;;4.22;;
56712;SDS011;42589;45.536;9.032;2022-11-20T14:11:44;5.65;;;4.47;;
56712;SDS011;42589;45.536;9.032;2022-11-20T14:14:52;7.07;;;4.55;;
56712;SDS011;42589;45.536;9.032;2022-11-20T14:17:53;6.43;;;4.75;;
56712;SDS011;42589;45.536;9.032;2022-11-20T14:20:53;8.13;;;4.93;;
56712;SDS011;42589;45.536;9.032;2022-11-20T14:24:09;6.20;;;4.53;;
56712;SDS011;42589;45.536;9.032;2022-11-20T14:27:14;7.20;;;4.63;;
56712;SDS011;42589;45.536;9.032;2022-11-20T14:30:20;8.18;;;4.43;;
56712;SDS011;42589;45.536;9.032;2022-11-20T14:33:21;7.68;;;5.45;;
56712;SDS011;42589;45.536;9.032;2022-11-20T14:36:24;7.45;;;5.28;;
56712;SDS011;42589;45.536;9.032;2022-11-20T14:39:36;11.15;;;5.13;;
56712;SDS011;42589;45.536;9.032;2022-11-20T14:42:43;9.00;;;4.97;;
56712;SDS011;42589;45.536;9.032;2022-11-20T14:45:44;8.88;;;5.20;;
56712;SDS011;42589;45.536;9.032;2022-11-20T14:48:49;7.38;;;4.28;;
56712;SDS011;42589;45.536;9.032;2022-11-20T14:52:00;8.25;;;5.00;;
56712;SDS011;42589;45.536;9.032;2022-11-20T14:55:01;26.65;;;12.98;;
56712;SDS011;42589;45.536;9.032;2022-11-20T14:58:05;16.33;;;8.88;;
56712;SDS011;42589;45.536;9.032;2022-11-20T15:04:09;9.40;;;5.47;;
56712;SDS011;42589;45.536;9.032;2022-11-20T15:07:10;7.53;;;4.82;;
56712;SDS011;42589;45.536;9.032;2022-11-20T15:13:25;5.40;;;4.25;;
56712;SDS011;42589;45.536;9.032;2022-11-20T15:16:26;9.13;;;5.22;;
56712;SDS011;42589;45.536;9.032;2022-11-20T15:19:27;8.63;;;4.45;;
56712;SDS011;42589;45.536;9.032;2022-11-20T15:22:29;5.90;;;4.38;;
56712;SDS011;42589;45.536;9.032;2022-11-20T15:25:30;8.27;;;4.30;;
56712;SDS011;42589;45.536;9.032;2022-11-20T15:28:34;6.68;;;4.35;;
56712;SDS011;42589;45.536;9.032;2022-11-20T15:31:35;7.47;;;4.50;;
56712;SDS011;42589;45.536;9.032;2022-11-20T15:34:36;7.47;;;4.50;;
56712;SDS011;42589;45.536;9.032;2022-11-20T15:37:39;7.18;;;4.53;;
56712;SDS011;42589;45.536;9.032;2022-11-20T15:40:40;7.03;;;4.95;;
56712;SDS011;42589;45.536;9.032;2022-11-20T15:43:42;6.13;;;4.40;;
56712;SDS011;42589;45.536;9.032;2022-11-20T15:46:42;8.80;;;4.70;;
56712;SDS011;42589;45.536;9.032;2022-11-20T15:49:45;8.35;;;4.97;;
56712;SDS011;42589;45.536;9.032;2022-11-20T15:52:46;8.55;;;4.90;;
56712;SDS011;42589;45.536;9.032;2022-11-20T15:55:47;7.43;;;5.35;;
56712;SDS011;42589;45.536;9.032;2022-11-20T15:58:47;9.52;;;6.45;;
56712;SDS011;42589;45.536;9.032;2022-11-20T16:01:48;11.00;;;6.30;;
56712;SDS011;42589;45.536;9.032;2022-11-20T16:04:49;8.48;;;5.40;;
56712;SDS011;42589;45.536;9.032;2022-11-20T16:07:54;8.68;;;5.85;;
56712;SDS011;42589;45.536;9.032;2022-11-20T16:10:55;9.23;;;6.32;;
56712;SDS011;42589;45.536;9.032;2022-11-20T16:13:56;10.20;;;6.85;;
56712;SDS011;42589;45.536;9.032;2022-11-20T16:17:15;11.00;;;6.18;;
56712;SDS011;42589;45.536;9.032;2022-11-20T16:20:36;11.18;;;6.13;;
56712;SDS011;42589;45.536;9.032;2022-11-20T16:23:37;8.45;;;6.22;;
56712;SDS011;42589;45.536;9.032;2022-11-20T16:26:38;10.32;;;6.13;;
56712;SDS011;42589;45.536;9.032;2022-11-20T16:29:39;11.70;;;6.40;;
56712;SDS011;42589;45.536;9.032;2022-11-20T16:32:40;9.93;;;6.45;;
56712;SDS011;42589;45.536;9.032;2022-11-20T16:35:42;9.77;;;7.00;;
56712;SDS011;42589;45.536;9.032;2022-11-20T16:38:42;11.73;;;7.70;;
56712;SDS011;42589;45.536;9.032;2022-11-20T16:41:43;9.50;;;6.43;;
56712;SDS011;42589;45.536;9.032;2022-11-20T16:44:45;12.40;;;7.53;;
56712;SDS011;42589;45.536;9.032;2022-11-20T16:47:45;13.57;;;7.95;;
56712;SDS011;42589;45.536;9.032;2022-11-20T16:50:50;11.95;;;8.13;;
56712;SDS011;42589;45.536;9.032;2022-11-20T16:53:52;16.27;;;9.00;;
56712;SDS011;42589;45.536;9.032;2022-11-20T16:56:55;13.52;;;9.20;;
56712;SDS011;42589;45.536;9.032;2022-11-20T16:59:56;13.15;;;8.25;;
56712;SDS011;42589;45.536;9.032;2022-11-20T17:02:57;13.32;;;8.68;;
56712;SDS011;42589;45.536;9.032;2022-11-20T17:05:59;11.55;;;7.90;;
56712;SDS011;42589;45.536;9.032;2022-11-20T17:09:00;11.18;;;8.20;;
56712;SDS011;42589;45.536;9.032;2022-11-20T17:12:01;11.85;;;8.63;;
56712;SDS011;42589;45.536;9.032;2022-11-20T17:15:02;16.02;;;8.60;;
56712;SDS011;42589;45.536;9.032;2022-11-20T17:18:03;12.43;;;7.93;;
56712;SDS011;42589;45.536;9.032;2022-11-20T17:21:03;13.60;;;8.02;;
56712;SDS011;42589;45.536;9.032;2022-11-20T17:24:08;12.10;;;8.00;;
56712;SDS011;42589;45.536;9.032;2022-11-20T17:27:09;14.30;;;8.35;;
56712;SDS011;42589;45.536;9.032;2022-11-20T17:30:09;13.52;;;9.00;;
56712;SDS011;42589;45.536;9.032;2022-11-20T17:33:10;11.75;;;8.73;;
56712;SDS011;42589;45.536;9.032;2022-11-20T17:36:17;13.52;;;9.20;;
56712;SDS011;42589;45.536;9.032;2022-11-20T17:39:18;12.35;;;8.88;;
56712;SDS011;42589;45.536;9.032;2022-11-20T17:42:19;14.32;;;9.20;;
56712;SDS011;42589;45.536;9.032;2022-11-20T17:45:26;12.30;;;9.25;;
56712;SDS011;42589;45.536;9.032;2022-11-20T17:48:29;15.10;;;9.73;;
56712;SDS011;42589;45.536;9.032;2022-11-20T17:51:33;14.80;;;9.82;;
56712;SDS011;42589;45.536;9.032;2022-11-20T17:54:36;15.68;;;10.50;;
56712;SDS011;42589;45.536;9.032;2022-11-20T17:57:38;15.18;;;10.00;;
56712;SDS011;42589;45.536;9.032;2022-11-20T18:01:02;16.45;;;10.27;;
56712;SDS011;42589;45.536;9.032;2022-11-20T18:04:03;14.45;;;10.35;;
56712;SDS011;42589;45.536;9.032;2022-11-20T18:07:04;18.95;;;10.43;;
56712;SDS011;42589;45.536;9.032;2022-11-20T18:10:05;16.00;;;10.65;;
56712;SDS011;42589;45.536;9.032;2022-11-20T18:13:06;18.90;;;10.48;;
56712;SDS011;42589;45.536;9.032;2022-11-20T18:16:06;17.08;;;10.73;;
56712;SDS011;42589;45.536;9.032;2022-11-20T18:19:07;15.30;;;10.38;;
56712;SDS011;42589;45.536;9.032;2022-11-20T18:22:08;15.55;;;10.57;;
56712;SDS011;42589;45.536;9.032;2022-11-20T18:25:09;15.10;;;10.68;;
56712;SDS011;42589;45.536;9.032;2022-11-20T18:28:09;16.67;;;11.55;;
56712;SDS011;42589;45.536;9.032;2022-11-20T18:31:10;18.10;;;11.52;;
56712;SDS011;42589;45.536;9.032;2022-11-20T18:34:11;15.35;;;11.00;;
56712;SDS011;42589;45.536;9.032;2022-11-20T18:37:13;18.80;;;11.90;;
56712;SDS011;42589;45.536;9.032;2022-11-20T18:40:34;18.25;;;11.85;;
56712;SDS011;42589;45.536;9.032;2022-11-20T18:43:35;22.83;;;12.52;;
56712;SDS011;42589;45.536;9.032;2022-11-20T18:46:54;19.02;;;11.45;;
56712;SDS011;42589;45.536;9.032;2022-11-20T18:49:55;18.13;;;13.35;;
56712;SDS011;42589;45.536;9.032;2022-11-20T18:52:56;22.23;;;14.07;;
56712;SDS011;42589;45.536;9.032;2022-11-20T18:55:57;21.08;;;13.55;;
56712;SDS011;42589;45.536;9.032;2022-11-20T18:58:58;21.20;;;14.20;;
56712;SDS011;42589;45.536;9.032;2022-11-20T19:01:58;24.90;;;15.75;;
56712;SDS011;42589;45.536;9.032;2022-11-20T19:05:02;26.10;;;16.45;;
56712;SDS011;42589;45.536;9.032;2022-11-20T19:08:03;26.23;;;17.05;;
56712;SDS011;42589;45.536;9.032;2022-11-20T19:11:04;23.13;;;15.82;;
56712;SDS011;42589;45.536;9.032;2022-11-20T19:14:05;25.27;;;15.90;;
56712;SDS011;42589;45.536;9.032;2022-11-20T19:17:08;25.52;;;15.35;;
56712;SDS011;42589;45.536;9.032;2022-11-20T19:20:12;21.65;;;15.88;;
56712;SDS011;42589;45.536;9.032;2022-11-20T19:23:14;26.30;;;16.48;;
56712;SDS011;42589;45.536;9.032;2022-11-20T19:26:17;28.08;;;16.45;;
56712;SDS011;42589;45.536;9.032;2022-11-20T19:29:18;23.13;;;16.50;;
56712;SDS011;42589;45.536;9.032;2022-11-20T19:32:20;22.20;;;16.27;;